Time;durP1;ratioP1;P1;durP2;ratioP2;P2;SDS_P1;SDS_P2;PMS_P1;PMS_P2;Temp;Humidity;BMP_temperature;BMP_pressure;BME280_temperature;BME280_humidity;BME280_pressure;Samples;Min_cycle;Max_cycle;Signal;HPM_P1;HPM_P2
2023/06/23 00:00:48;;;;;;;18.75;2.05;;;;;;;25.68;63.75;99236.47;7310368;19;129284;-32
2023/06/23 00:03:13;;;;;;;25.00;2.37;;;;;;;25.69;64.48;99238.09;7313773;19;131385;-35
2023/06/23 00:05:38;;;;;;;52.97;3.73;;;;;;;25.58;64.18;99220.88;7309564;19;128811;-43
2023/06/23 00:08:05;;;;;;;40.70;3.20;;;;;;;25.70;63.71;99231.88;7312543;19;129156;-41
2023/06/23 00:10:30;;;;;;;32.00;2.65;;;;;;;25.70;64.02;99223.97;7310928;19;130187;-39
2023/06/23 00:12:57;;;;;;;28.33;2.27;;;;;;;25.73;64.09;99222.78;7312850;19;129263;-34
2023/06/23 00:15:22;;;;;;;46.00;3.28;;;;;;;25.70;64.12;99221.34;7312325;19;129091;-40
2023/06/23 00:17:49;;;;;;;36.70;2.87;;;;;;;25.69;64.13;99211.78;7312577;19;128628;-35
2023/06/23 00:20:15;;;;;;;31.83;2.65;;;;;;;25.65;63.99;99195.50;7311130;19;129521;-43
2023/06/23 00:22:43;;;;;;;34.63;2.63;;;;;;;25.66;64.13;99191.88;7310436;19;129562;-38
2023/06/23 00:25:10;;;;;;;34.25;2.67;;;;;;;25.65;64.17;99184.16;7313099;19;129287;-43
2023/06/23 00:27:39;;;;;;;47.33;3.13;;;;;;;25.64;64.30;99174.63;7311622;19;130445;-37
2023/06/23 00:30:06;;;;;;;22.23;2.28;;;;;;;25.65;64.24;99171.00;7312255;19;129805;-42
2023/06/23 00:32:32;;;;;;;37.92;2.88;;;;;;;25.63;64.25;99150.09;7311643;19;130141;-36
2023/06/23 00:34:57;;;;;;;28.57;2.23;;;;;;;25.65;64.37;99136.78;7312573;19;128963;-38
2023/06/23 00:37:23;;;;;;;44.47;3.00;;;;;;;25.65;64.06;99126.25;7311667;19;128995;-36
2023/06/23 00:39:48;;;;;;;26.57;2.30;;;;;;;25.64;64.06;99099.09;7312151;19;130276;-40
2023/06/23 00:42:13;;;;;;;36.37;2.77;;;;;;;25.63;63.97;99091.38;7309729;19;129629;-38
2023/06/23 00:44:39;;;;;;;13.70;1.50;;;;;;;25.63;63.76;99070.31;7312044;19;129015;-39
2023/06/23 00:47:05;;;;;;;37.00;2.67;;;;;;;25.63;63.96;99065.84;7312219;19;129757;-41
2023/06/23 00:49:30;;;;;;;33.40;2.53;;;;;;;25.59;64.04;99042.69;7311186;19;129077;-41
2023/06/23 00:52:01;;;;;;;24.37;1.97;;;;;;;25.53;64.38;99011.81;7311725;19;129429;-34
2023/06/23 00:54:28;;;;;;;28.33;2.17;;;;;;;25.62;64.17;99006.28;7312021;19;129230;-39
2023/06/23 00:56:58;;;;;;;37.75;2.67;;;;;;;25.49;64.41;98973.69;7310940;19;129080;-40
2023/06/23 00:59:24;;;;;;;22.52;1.85;;;;;;;25.59;64.06;98988.22;7311436;19;129325;-38
2023/06/23 01:01:50;;;;;;;28.58;2.20;;;;;;;25.61;64.02;98990.69;7310136;19;129721;-36
2023/06/23 01:04:15;;;;;;;22.60;1.90;;;;;;;25.59;64.17;98990.88;7311609;19;129736;-38
2023/06/23 01:07:11;;;;;;;48.53;3.33;;;;;;;25.57;64.12;98986.75;7311724;19;128996;-40
2023/06/23 01:09:44;;;;;;;41.83;2.97;;;;;;;25.54;64.06;98984.50;7309859;19;129505;-43
2023/06/23 01:12:26;;;;;;;40.97;2.88;;;;;;;25.60;63.73;98981.97;7311427;19;129482;-37
2023/06/23 01:14:59;;;;;;;28.90;2.22;;;;;;;25.64;64.10;98977.16;7311847;19;129125;-35
2023/06/23 01:17:31;;;;;;;30.75;2.38;;;;;;;25.62;64.54;98973.88;7317705;19;128994;-39
2023/06/23 01:20:24;;;;;;;38.05;2.88;;;;;;;25.59;63.94;98961.91;7316402;19;129763;-43
2023/06/23 01:23:08;;;;;;;32.63;2.40;;;;;;;25.63;64.08;98965.00;7315703;19;129391;-37
2023/06/23 01:26:14;;;;;;;20.52;1.90;;;;;;;25.61;63.91;98951.19;7317518;19;129352;-37
2023/06/23 01:29:00;;;;;;;25.35;2.08;;;;;;;25.62;64.48;98921.22;7318836;19;129340;-40
2023/06/23 01:31:31;;;;;;;28.10;2.28;;;;;;;25.62;64.24;98905.44;7318295;19;129766;-38
2023/06/23 01:34:01;;;;;;;5.40;0.95;;;;;;;25.61;64.27;98911.69;7317998;19;129273;-40
2023/06/23 01:36:44;;;;;;;30.20;2.22;;;;;;;25.62;64.28;98958.09;7316988;19;129205;-41
2023/06/23 01:39:17;;;;;;;37.15;2.40;;;;;;;25.59;63.77;98995.31;7318056;19;129347;-43
2023/06/23 01:41:52;;;;;;;36.83;2.65;;;;;;;25.60;63.98;98997.75;7316049;19;129186;-41
2023/06/23 01:44:22;;;;;;;34.55;2.65;;;;;;;25.61;64.43;99009.09;7317880;19;129215;-42
2023/06/23 01:46:52;;;;;;;30.02;2.45;;;;;;;25.61;63.94;99006.47;7317972;19;129366;-40
2023/06/23 01:49:23;;;;;;;23.13;2.00;;;;;;;25.59;64.07;98984.78;7316482;19;129577;-43
2023/06/23 01:51:51;;;;;;;23.42;1.73;;;;;;;25.60;63.76;98966.16;7317414;19;129220;-44
2023/06/23 01:54:18;;;;;;;36.97;2.58;;;;;;;25.55;63.90;98970.34;7318926;19;129692;-39
2023/06/23 01:56:45;;;;;;;34.00;2.58;;;;;;;25.54;63.96;98971.31;7318794;19;129375;-43
2023/06/23 01:59:13;;;;;;;28.35;2.13;;;;;;;25.54;64.31;98971.31;7315860;19;130265;-43
2023/06/23 02:01:40;;;;;;;32.50;2.42;;;;;;;25.58;64.44;98975.25;7316462;19;130488;-43
2023/06/23 02:04:05;;;;;;;;;;;;;;;25.64;63.82;98961.34;7316599;19;130355;-40
2023/06/23 02:06:35;;;;;;;36.92;2.72;;;;;;;25.59;63.71;98969.81;7316909;19;129435;-40
2023/06/23 02:09:03;;;;;;;24.92;1.90;;;;;;;25.58;64.21;98991.03;7316156;19;129431;-43
2023/06/23 02:11:29;;;;;;;27.38;1.95;;;;;;;25.59;63.58;99003.19;7315777;19;129077;-44
2023/06/23 02:13:57;;;;;;;13.63;1.33;;;;;;;25.57;64.43;99013.09;7316557;19;129449;-43
2023/06/23 02:16:24;;;;;;;30.65;2.35;;;;;;;25.59;64.53;99033.00;7315666;19;129522;-44
2023/06/23 02:18:54;;;;;;;31.58;2.35;;;;;;;25.58;64.40;99035.81;7316394;19;129569;-41
2023/06/23 02:21:21;;;;;;;10.38;1.02;;;;;;;25.49;64.23;99034.22;7312862;19;129615;-40
2023/06/23 02:23:48;;;;;;;26.38;2.05;;;;;;;25.58;64.16;99062.91;7316127;19;129723;-44
2023/06/23 02:26:14;;;;;;;43.38;3.03;;;;;;;25.56;64.36;99059.69;7315710;19;129376;-41
2023/06/23 02:28:41;;;;;;;26.40;2.05;;;;;;;25.52;63.60;99062.81;7313644;19;128924;-42
2023/06/23 02:31:08;;;;;;;31.70;2.60;;;;;;;25.53;64.57;99060.03;7313617;19;129274;-43
2023/06/23 02:33:33;;;;;;;21.95;2.03;;;;;;;25.52;64.50;99052.28;7315968;19;130321;-43
2023/06/23 02:36:01;;;;;;;44.20;3.30;;;;;;;25.54;64.15;99052.94;7315957;19;128957;-38
2023/06/23 02:38:29;;;;;;;32.33;2.38;;;;;;;25.54;63.76;99060.84;7316230;19;128813;-39
2023/06/23 02:40:56;;;;;;;21.60;1.92;;;;;;;25.55;64.51;99068.56;7313757;19;129540;-40
2023/06/23 02:43:29;;;;;;;29.48;2.40;;;;;;;25.58;64.34;99073.44;7313466;19;129641;-37
2023/06/23 02:46:00;;;;;;;37.97;2.90;;;;;;;25.52;64.20;99052.28;7315142;19;128913;-37
2023/06/23 02:48:33;;;;;;;32.90;2.65;;;;;;;25.57;64.64;99069.19;7315431;19;128973;-36
2023/06/23 02:51:00;;;;;;;35.53;3.28;;;;;;;25.58;64.03;99060.28;7314274;19;129507;-35
2023/06/23 02:53:30;;;;;;;27.40;2.63;;;;;;;25.58;63.76;99056.88;7316186;19;129604;-39
2023/06/23 02:56:09;;;;;;;33.28;2.88;;;;;;;25.57;64.20;99055.22;7315677;19;129087;-34
2023/06/23 02:58:37;;;;;;;43.42;3.60;;;;;;;25.55;64.19;99068.56;7314081;19;128784;-39
2023/06/23 03:01:05;;;;;;;38.45;3.42;;;;;;;25.57;64.07;99071.81;7313602;19;129740;-38
2023/06/23 03:03:33;;;;;;;26.73;2.50;;;;;;;25.56;64.41;99079.91;7316116;19;130408;-41
2023/06/23 03:05:59;;;;;;;30.88;2.67;;;;;;;25.56;64.21;99090.44;7315209;19;129235;-39
2023/06/23 03:08:25;;;;;;;36.27;3.17;;;;;;;25.49;64.28;99078.97;7314575;19;128912;-39
2023/06/23 03:10:51;;;;;;;47.23;3.90;;;;;;;25.57;64.08;99099.97;7312518;19;129358;-42
2023/06/23 03:13:16;;;;;;;27.10;2.60;;;;;;;25.59;63.88;99097.97;7315008;19;129362;-42
2023/06/23 03:15:42;;;;;;;35.77;3.20;;;;;;;25.58;64.22;99098.97;7315011;19;129668;-38
2023/06/23 03:18:14;;;;;;;36.03;3.10;;;;;;;25.47;63.91;99079.16;7314839;19;129043;-37
2023/06/23 03:20:52;;;;;;;64.32;4.63;;;;;;;25.57;64.05;99086.78;7312090;19;129192;-43
2023/06/23 03:23:19;;;;;;;29.58;3.08;;;;;;;25.57;64.12;99086.78;7312754;19;129305;-43
2023/06/23 03:25:48;;;;;;;26.67;3.03;;;;;;;25.49;63.55;99078.97;7314910;19;129121;-43
2023/06/23 03:28:28;;;;;;;58.13;4.82;;;;;;;25.57;64.14;99092.06;7313341;19;129219;-45
2023/06/23 03:31:02;;;;;;;22.83;2.47;;;;;;;25.55;63.69;99094.06;7311509;19;129400;-42
2023/06/23 03:33:33;;;;;;;38.50;3.47;;;;;;;25.54;64.11;99074.00;7314910;19;129739;-41
2023/06/23 03:36:07;;;;;;;42.97;3.60;;;;;;;25.54;63.66;99071.34;7313092;19;129133;-43
2023/06/23 03:38:37;;;;;;;30.50;2.70;;;;;;;25.56;64.06;99072.00;7314050;19;128979;-40
2023/06/23 03:41:09;;;;;;;24.67;2.67;;;;;;;25.53;63.69;99075.84;7311894;19;129231;-43
2023/06/23 03:43:39;;;;;;;26.08;3.13;;;;;;;25.52;64.01;99074.19;7314528;19;129162;-38
2023/06/23 03:46:12;;;;;;;21.90;2.40;;;;;;;25.52;64.34;99070.72;7312753;19;129019;-41
2023/06/23 03:48:41;;;;;;;48.40;3.75;;;;;;;25.44;63.96;99055.00;7312987;19;130411;-43
2023/06/23 03:51:10;;;;;;;19.48;2.72;;;;;;;25.52;63.97;99058.38;7311150;19;130128;-44
2023/06/23 03:53:37;;;;;;;46.22;4.07;;;;;;;25.51;63.81;99058.56;7315436;19;130446;-43
2023/06/23 03:56:05;;;;;;;30.52;3.15;;;;;;;25.49;63.96;99052.66;7314940;19;130099;-43
2023/06/23 03:58:32;;;;;;;60.55;4.90;;;;;;;25.50;64.40;99049.84;7312453;19;129134;-40
2023/06/23 04:00:58;;;;;;;31.33;3.15;;;;;;;25.49;63.50;99044.75;7312098;19;129213;-43
2023/06/23 04:03:26;;;;;;;24.50;3.00;;;;;;;25.51;64.07;99050.66;7311058;19;129655;-38
2023/06/23 04:05:53;;;;;;;23.65;2.70;;;;;;;25.50;64.16;99054.31;7312745;19;129246;-43
2023/06/23 04:08:20;;;;;;;45.55;3.75;;;;;;;25.47;64.41;99066.00;7313424;19;129728;-43
2023/06/23 04:10:47;;;;;;;28.50;2.60;;;;;;;25.43;64.55;99082.31;7311599;19;129320;-39
2023/06/23 04:13:14;;;;;;;19.60;2.53;;;;;;;25.36;64.53;99084.00;7311697;19;129069;-40
2023/06/23 04:15:40;;;;;;;38.20;3.55;;;;;;;25.44;63.86;99105.00;7312282;19;129450;-43
2023/06/23 04:18:10;;;;;;;46.65;4.30;;;;;;;25.42;64.11;99080.69;7313721;19;128869;-40
2023/06/23 04:20:38;;;;;;;30.50;3.13;;;;;;;25.45;64.24;99067.97;7312726;19;130275;-42
2023/06/23 04:23:05;;;;;;;22.52;2.83;;;;;;;25.46;64.24;99053.84;7311698;19;129809;-41
2023/06/23 04:25:30;;;;;;;29.52;3.33;;;;;;;25.47;64.27;99059.91;7312940;19;128929;-43
2023/06/23 04:28:00;;;;;;;60.00;5.33;;;;;;;25.46;63.94;99066.16;7312796;19;129080;-39
2023/06/23 04:30:28;;;;;;;40.00;3.88;;;;;;;25.42;64.31;99072.81;7310976;19;129904;-45
2023/06/23 04:32:53;;;;;;;21.45;2.88;;;;;;;25.42;64.66;99078.88;7313531;19;129592;-43
2023/06/23 04:35:19;;;;;;;24.13;3.03;;;;;;;25.43;64.26;99069.16;7312929;19;129473;-42
2023/06/23 04:37:48;;;;;;;38.80;4.07;;;;;;;25.43;64.26;99074.44;7310578;19;130373;-43
2023/06/23 04:40:38;;;;;;;39.55;3.88;;;;;;;25.46;64.81;99084.59;7311058;19;129181;-41
2023/06/23 04:43:18;;;;;;;38.67;3.90;;;;;;;25.47;64.37;99092.31;7308569;19;129330;-42
2023/06/23 04:45:53;;;;;;;33.63;4.00;;;;;;;25.43;64.48;99087.59;7311837;19;129806;-42
2023/06/23 04:48:23;;;;;;;27.90;2.97;;;;;;;25.43;64.20;99100.75;7310871;19;129067;-42
2023/06/23 04:50:51;;;;;;;28.08;3.50;;;;;;;25.45;64.34;99094.28;7311354;19;129573;-43
2023/06/23 04:53:20;;;;;;;7.93;2.50;;;;;;;25.44;64.02;99091.84;7319986;19;129667;-38
2023/06/23 04:55:52;;;;;;;40.50;3.65;;;;;;;25.44;64.78;99092.66;7316809;19;129174;-41
2023/06/23 04:58:20;;;;;;;30.73;3.30;;;;;;;25.45;64.36;99096.13;7319086;19;128962;-42
2023/06/23 05:00:47;;;;;;;30.48;3.65;;;;;;;25.46;64.82;99103.84;7315182;19;130989;-37
2023/06/23 05:03:14;;;;;;;24.88;3.00;;;;;;;25.45;64.16;99106.66;7317076;19;130477;-43
2023/06/23 05:05:42;;;;;;;44.78;4.22;;;;;;;25.47;64.88;99107.28;7316272;19;130215;-38
2023/06/23 05:08:09;;;;;;;55.97;4.75;;;;;;;25.44;63.91;99108.47;7315817;19;129653;-42
2023/06/23 05:10:37;;;;;;;29.00;3.45;;;;;;;25.50;64.27;99106.94;7315723;19;129615;-39
2023/06/23 05:13:04;;;;;;;30.88;3.05;;;;;;;25.59;64.41;99100.59;7318715;19;130252;-40
2023/06/23 05:15:29;;;;;;;66.72;5.43;;;;;;;25.62;64.00;99101.06;7313165;19;129226;-40
2023/06/23 05:17:58;;;;;;;66.80;5.50;;;;;;;25.66;63.95;99106.81;7316017;19;129561;-42
2023/06/23 05:20:26;;;;;;;38.08;3.80;;;;;;;25.68;63.50;99105.63;7314578;19;129550;-38
2023/06/23 05:22:55;;;;;;;12.55;2.13;;;;;;;25.71;64.33;99109.72;7314612;19;129337;-41
2023/06/23 05:25:23;;;;;;;24.02;2.90;;;;;;;25.71;63.50;99112.34;7318176;19;129303;-38
2023/06/23 05:27:57;;;;;;;51.83;4.55;;;;;;;25.73;64.11;99108.53;7315977;19;129536;-38
2023/06/23 05:30:24;;;;;;;26.38;3.22;;;;;;;25.77;63.71;99116.91;7316031;19;129658;-39
2023/06/23 05:32:52;;;;;;;31.17;3.65;;;;;;;25.76;63.37;99103.91;7317868;19;129404;-42
2023/06/23 05:35:18;;;;;;;21.73;2.85;;;;;;;25.77;63.77;99109.00;7316784;19;129897;-40
2023/06/23 05:37:46;;;;;;;24.48;3.00;;;;;;;25.80;63.77;99113.13;7317612;19;129388;-40
2023/06/23 05:40:13;;;;;;;84.05;6.72;;;;;;;25.77;63.87;99119.53;7314321;19;129458;-40
2023/06/23 05:42:39;;;;;;;30.77;3.17;;;;;;;25.76;63.87;99123.19;7316067;19;129508;-42
2023/06/23 05:45:05;;;;;;;23.73;2.65;;;;;;;25.78;63.55;99123.84;7317732;19;128976;-38
2023/06/23 05:47:35;;;;;;;31.60;3.13;;;;;;;25.77;63.67;99119.53;7316923;19;129081;-40
2023/06/23 05:50:11;;;;;;;42.58;3.80;;;;;;;25.81;63.73;99114.75;7315493;19;130017;-41
2023/06/23 05:52:40;;;;;;;27.48;2.95;;;;;;;25.81;63.99;99106.84;7318282;19;129271;-41
2023/06/23 05:55:09;;;;;;;23.30;2.88;;;;;;;25.78;63.63;99105.41;7317448;19;128936;-42
2023/06/23 05:57:38;;;;;;;29.52;3.25;;;;;;;25.78;63.90;99105.41;7317389;19;129445;-37
2023/06/23 06:00:13;;;;;;;47.70;4.03;;;;;;;25.82;63.92;99111.94;7315284;19;129460;-42
2023/06/23 06:02:44;;;;;;;31.85;3.33;;;;;;;25.79;64.25;99107.03;7315665;19;129863;-42
2023/06/23 06:05:14;;;;;;;44.17;4.20;;;;;;;25.77;64.09;99098.47;7317581;19;128882;-36
2023/06/23 06:07:41;;;;;;;24.45;3.20;;;;;;;25.77;64.35;99098.47;7317795;19;128958;-39
2023/06/23 06:10:09;;;;;;;37.60;3.67;;;;;;;25.71;64.14;99083.41;7315137;19;131004;-37
2023/06/23 06:12:37;;;;;;;35.97;3.58;;;;;;;25.71;64.19;99088.66;7317796;19;130095;-34
2023/06/23 06:15:03;;;;;;;31.45;3.50;;;;;;;25.76;64.09;99104.75;7316674;19;129449;-39
2023/06/23 06:17:32;;;;;;;28.70;3.20;;;;;;;25.75;64.29;99097.03;7318213;19;128773;-43
2023/06/23 06:20:01;;;;;;;10.82;2.13;;;;;;;25.75;63.98;99111.00;7315428;19;129250;-44
2023/06/23 06:22:29;;;;;;;25.70;2.78;;;;;;;25.73;64.31;99103.28;7314878;19;130959;-42
2023/06/23 06:24:55;;;;;;;46.75;4.07;;;;;;;25.77;64.81;99110.84;7316596;19;129239;-39
2023/06/23 06:27:22;;;;;;;15.80;2.58;;;;;;;25.76;64.67;99110.00;7317310;19;129303;-46
2023/06/23 06:29:50;;;;;;;27.63;3.33;;;;;;;25.75;64.71;99105.72;7314628;19;129452;-43
2023/06/23 06:32:16;;;;;;;30.40;3.20;;;;;;;25.75;64.75;99108.34;7316171;19;129748;-35
2023/06/23 06:34:43;;;;;;;44.42;4.20;;;;;;;25.77;64.20;99109.00;7316987;19;129959;-45
2023/06/23 06:37:09;;;;;;;;;;;;;;;25.80;64.48;99108.66;7317501;19;129149;-39
2023/06/23 06:39:37;;;;;;;29.08;3.08;;;;;;;25.72;64.66;99106.09;7315554;19;130386;-38
2023/06/23 06:42:02;;;;;;;30.83;3.55;;;;;;;25.72;64.98;99106.09;7315001;19;129254;-42
2023/06/23 06:44:28;;;;;;;34.20;3.57;;;;;;;25.72;64.58;99100.81;7316732;19;129232;-44
2023/06/23 06:46:55;;;;;;;22.90;2.97;;;;;;;25.64;64.27;99087.72;7315439;19;129835;-41
2023/06/23 06:49:23;;;;;;;;;;;;;;;25.77;64.67;99103.75;7315373;19;129099;-43
2023/06/23 06:51:50;;;;;;;30.70;3.53;;;;;;;25.72;64.24;99106.09;7313497;19;131061;-38
2023/06/23 06:54:16;;;;;;;34.72;3.67;;;;;;;25.72;64.21;99106.09;7316469;19;128958;-44
2023/06/23 06:56:42;;;;;;;25.15;3.20;;;;;;;25.70;64.81;99102.84;7315169;19;128812;-43
2023/06/23 06:59:08;;;;;;;10.27;2.33;;;;;;;25.65;64.34;99094.66;7314554;19;129053;-44
2023/06/23 07:01:35;;;;;;;28.93;3.07;;;;;;;25.68;64.77;99099.56;7314583;19;129469;-40
2023/06/23 07:04:03;;;;;;;46.95;4.22;;;;;;;25.67;64.54;99097.91;7313327;19;129288;-41
2023/06/23 07:06:28;;;;;;;35.47;3.92;;;;;;;25.66;64.56;99096.28;7314649;19;129457;-36
2023/06/23 07:08:54;;;;;;;32.07;3.63;;;;;;;25.67;64.77;99104.00;7315708;19;130170;-36
2023/06/23 07:11:19;;;;;;;51.83;5.03;;;;;;;25.67;64.46;99101.38;7311095;19;129179;-38
2023/06/23 07:13:45;;;;;;;23.33;3.03;;;;;;;25.69;64.80;99102.00;7314632;19;129885;-35
2023/06/23 07:16:10;;;;;;;26.57;2.93;;;;;;;25.67;64.88;99104.00;7315375;19;129178;-39
2023/06/23 07:18:35;;;;;;;15.33;2.57;;;;;;;25.67;65.24;99108.44;7314556;19;129637;-42
2023/06/23 07:21:03;;;;;;;51.03;4.50;;;;;;;25.68;64.58;99108.25;7311808;19;129299;-35
2023/06/23 07:23:28;;;;;;;25.08;3.00;;;;;;;25.68;64.61;99120.63;7312531;19;128945;-42
2023/06/23 07:25:53;;;;;;;26.60;3.27;;;;;;;25.65;64.60;99110.44;7314959;19;129429;-43
2023/06/23 07:28:20;;;;;;;7.47;2.00;;;;;;;25.69;65.09;99107.28;7314397;19;129014;-39
2023/06/23 07:30:45;;;;;;;35.70;3.55;;;;;;;25.69;64.32;99111.72;7312056;19;129209;-39
2023/06/23 07:33:11;;;;;;;29.77;3.33;;;;;;;25.68;64.77;99115.34;7315660;19;128899;-37
2023/06/23 07:35:36;;;;;;;14.67;2.50;;;;;;;25.69;65.13;99122.25;7314117;19;128938;-44
2023/06/23 07:38:02;;;;;;;51.63;5.07;;;;;;;25.70;64.32;99126.53;7314338;19;130178;-34
2023/06/23 07:40:27;;;;;;;41.20;3.63;;;;;;;25.68;64.77;99128.53;7312352;19;130643;-40
2023/06/23 07:42:53;;;;;;;35.63;3.40;;;;;;;25.70;64.79;99126.53;7314563;19;128697;-37
2023/06/23 07:45:18;;;;;;;26.40;2.93;;;;;;;25.69;64.29;99127.50;7314767;19;129415;-41
2023/06/23 07:47:43;;;;;;;25.27;2.53;;;;;;;25.69;64.74;99135.41;7314492;19;129051;-41
2023/06/23 07:50:09;;;;;;;42.37;3.57;;;;;;;25.70;64.70;99134.44;7312239;19;130478;-40
2023/06/23 07:52:34;;;;;;;27.80;2.63;;;;;;;25.69;64.73;99138.03;7315408;19;129144;-40
2023/06/23 07:55:00;;;;;;;28.27;2.53;;;;;;;25.68;64.94;99136.41;7314661;19;129194;-38
2023/06/23 07:57:25;;;;;;;22.93;2.43;;;;;;;25.69;64.12;99138.03;7314352;19;129558;-40
2023/06/23 07:59:51;;;;;;;52.20;3.93;;;;;;;25.67;64.46;99134.75;7312425;19;129435;-43
2023/06/23 08:02:16;;;;;;;17.33;1.77;;;;;;;25.67;64.31;99134.75;7314143;19;129017;-39
2023/06/23 08:04:42;;;;;;;24.17;2.43;;;;;;;25.67;64.82;99140.84;7314255;19;129250;-37
2023/06/23 08:07:07;;;;;;;26.97;2.57;;;;;;;25.69;64.69;99141.50;7314846;19;129985;-36
2023/06/23 08:09:33;;;;;;;35.33;2.67;;;;;;;25.67;64.55;99150.56;7312910;19;130234;-41
2023/06/23 08:11:58;;;;;;;32.57;2.63;;;;;;;25.58;64.64;99141.09;7314478;19;128769;-40
2023/06/23 08:14:23;;;;;;;28.87;2.53;;;;;;;25.69;64.58;99154.66;7313693;19;129646;-33
2023/06/23 08:16:49;;;;;;;40.77;2.80;;;;;;;25.69;64.07;99159.13;7313999;19;129435;-38
2023/06/23 08:19:21;;;;;;;35.93;2.77;;;;;;;25.65;64.64;99150.75;7312817;19;129280;-38
2023/06/23 08:21:46;;;;;;;37.05;2.92;;;;;;;25.67;64.15;99159.28;7313686;19;128891;-33
2023/06/23 08:24:12;;;;;;;23.87;2.07;;;;;;;25.66;64.30;99167.38;7310930;19;128776;-36
2023/06/23 08:26:37;;;;;;;27.73;2.23;;;;;;;25.66;64.24;99175.25;7310088;19;129670;-35
2023/06/23 08:29:02;;;;;;;34.53;2.63;;;;;;;25.67;64.44;99177.72;7312629;19;129602;-35
2023/06/23 08:31:28;;;;;;;14.63;1.43;;;;;;;25.66;64.14;99191.06;7313885;19;128931;-39
2023/06/23 08:33:53;;;;;;;29.63;2.60;;;;;;;25.68;64.09;99183.81;7312657;19;129182;-34
2023/06/23 08:36:18;;;;;;;36.10;2.70;;;;;;;25.67;63.97;99184.78;7312509;19;131148;-37
2023/06/23 08:38:44;;;;;;;24.73;1.97;;;;;;;25.66;63.88;99180.53;7312372;19;129306;-40
2023/06/23 08:41:10;;;;;;;27.80;2.30;;;;;;;25.54;64.21;99169.59;7309548;19;129481;-41
2023/06/23 08:43:35;;;;;;;27.05;2.55;;;;;;;25.66;63.42;99196.34;7310403;19;128864;-37
2023/06/23 08:46:05;;;;;;;41.57;3.23;;;;;;;25.65;63.82;99202.59;7311427;19;128992;-40
2023/06/23 08:48:30;;;;;;;33.33;2.83;;;;;;;25.66;63.54;99196.34;7311785;19;129716;-44
2023/06/23 08:51:01;;;;;;;27.83;2.73;;;;;;;25.65;63.56;99194.72;7309864;19;128841;-39
2023/06/23 08:53:26;;;;;;;23.40;2.30;;;;;;;25.62;63.52;99195.84;7312880;19;129003;-41
2023/06/23 08:55:53;;;;;;;56.17;4.40;;;;;;;25.52;63.38;99195.25;7312337;19;130802;-40
2023/06/23 08:58:23;;;;;;;26.83;2.50;;;;;;;25.61;63.33;99230.25;7312191;19;129959;-41
2023/06/23 09:00:50;;;;;;;31.67;3.25;;;;;;;25.62;63.66;99221.34;7309839;19;128819;-42
2023/06/23 09:03:15;;;;;;;23.00;2.55;;;;;;;25.61;63.24;99217.09;7309175;19;129906;-34
2023/06/23 09:05:41;;;;;;;39.87;3.60;;;;;;;25.56;62.98;99201.00;7311452;19;130853;-41
2023/06/23 09:08:07;;;;;;;45.27;3.80;;;;;;;25.63;63.35;99225.66;7311023;19;129472;-33
2023/06/23 09:10:32;;;;;;;21.05;2.55;;;;;;;25.61;63.08;99219.72;7310383;19;129325;-38
2023/06/23 09:13:07;;;;;;;17.40;2.07;;;;;;;25.63;63.69;99223.00;7311323;19;128845;-39
2023/06/23 09:15:34;;;;;;;37.10;3.60;;;;;;;25.61;63.69;99232.91;7311328;19;130504;-32
2023/06/23 09:18:02;;;;;;;49.30;4.38;;;;;;;25.58;63.45;99220.88;7309961;19;129298;-39
2023/06/23 09:20:31;;;;;;;25.08;2.65;;;;;;;25.59;63.77;99232.25;7311405;19;128823;-38
2023/06/23 09:22:58;;;;;;;27.67;2.72;;;;;;;25.60;63.20;99232.06;7309352;19;129127;-39
2023/06/23 09:25:41;;;;;;;21.65;2.55;;;;;;;25.64;63.00;99232.53;7311073;19;129079;-37
2023/06/23 09:28:06;;;;;;;46.17;4.28;;;;;;;25.62;63.13;99231.88;7310165;19;129401;-38
2023/06/23 09:30:33;;;;;;;43.13;3.90;;;;;;;25.60;62.73;99239.97;7310049;19;129613;-41
2023/06/23 09:33:00;;;;;;;37.33;3.25;;;;;;;25.58;63.49;99241.16;7310659;19;129032;-40
2023/06/23 09:35:25;;;;;;;;;;;;;;;25.68;62.98;99249.66;7310793;19;129281;-35
2023/06/23 09:37:50;;;;;;;85.75;6.53;;;;;;;25.63;62.67;99252.78;7313449;19;129821;-37
2023/06/23 09:40:24;;;;;;;41.23;3.80;;;;;;;25.63;62.78;99249.34;7316487;19;128994;-34
2023/06/23 09:42:49;;;;;;;45.75;3.75;;;;;;;25.58;63.11;99252.47;7317349;19;129059;-42
2023/06/23 09:45:17;;;;;;;8.90;1.77;;;;;;;25.60;62.23;99249.69;7317530;19;129575;-36
2023/06/23 09:47:43;;;;;;;26.15;2.67;;;;;;;25.58;62.92;99255.09;7317618;19;130166;-34
2023/06/23 09:50:18;;;;;;;46.70;3.53;;;;;;;25.57;62.54;99248.22;7315132;19;129526;-40
2023/06/23 09:52:43;;;;;;;28.05;2.40;;;;;;;25.59;62.40;99248.03;7318677;19;128731;-39
2023/06/23 09:55:09;;;;;;;30.17;2.60;;;;;;;25.57;62.67;99250.03;7316537;19;129657;-39
2023/06/23 09:57:34;;;;;;;23.20;2.30;;;;;;;25.59;61.91;99254.13;7317585;19;129180;-39
2023/06/23 10:00:00;;;;;;;35.73;2.73;;;;;;;25.57;61.79;99263.19;7315803;19;129153;-35
2023/06/23 10:02:30;;;;;;;33.77;3.17;;;;;;;25.55;62.68;99259.94;7317163;19;128825;-36
2023/06/23 10:05:01;;;;;;;19.85;2.20;;;;;;;25.59;62.02;99263.84;7316115;19;129377;-37
2023/06/23 10:07:27;;;;;;;14.88;1.83;;;;;;;25.58;62.02;99270.09;7316893;19;129206;-36
2023/06/23 10:09:55;;;;;;;92.17;6.50;;;;;;;25.56;61.94;99275.53;7314578;19;130369;-35
2023/06/23 10:12:26;;;;;;;30.90;2.67;;;;;;;25.46;62.31;99253.06;7318627;19;129383;-39
2023/06/23 10:14:54;;;;;;;23.65;2.25;;;;;;;25.54;61.67;99276.69;7317045;19;130160;-42
2023/06/23 10:17:20;;;;;;;26.30;2.60;;;;;;;25.57;62.07;99276.34;7316368;19;129184;-37
2023/06/23 10:19:46;;;;;;;26.87;2.73;;;;;;;25.56;61.84;99277.34;7315291;19;128926;-40
2023/06/23 10:22:19;;;;;;;41.05;3.25;;;;;;;25.56;61.34;99278.19;7315707;19;128992;-33
2023/06/23 10:24:56;;;;;;;22.63;2.20;;;;;;;25.56;61.68;99285.25;7317106;19;129448;-38
2023/06/23 10:27:26;;;;;;;22.85;2.22;;;;;;;25.46;61.91;99269.69;7315218;19;129745;-40
2023/06/23 10:29:57;;;;;;;24.95;2.45;;;;;;;25.58;61.18;99283.28;7315439;19;129354;-35
2023/06/23 10:32:26;;;;;;;31.50;2.63;;;;;;;25.55;61.43;99289.69;7316206;19;129004;-39
2023/06/23 10:34:55;;;;;;;40.03;3.22;;;;;;;25.55;61.81;99288.88;7315986;19;129432;-42
2023/06/23 10:37:23;;;;;;;20.00;1.92;;;;;;;25.43;61.68;99269.19;7315755;19;129467;-42
2023/06/23 10:40:01;;;;;;;23.27;2.50;;;;;;;25.54;61.73;99289.84;7314834;19;129524;-38
2023/06/23 10:42:28;;;;;;;24.88;2.35;;;;;;;25.51;61.46;99288.41;7316943;19;128849;-36
2023/06/23 10:44:54;;;;;;;22.15;2.22;;;;;;;25.55;61.41;99289.69;7315455;19;129026;-38
2023/06/23 10:47:20;;;;;;;44.83;3.43;;;;;;;25.55;61.30;99294.16;7316174;19;129751;-41
2023/06/23 10:49:46;;;;;;;23.67;2.30;;;;;;;25.52;61.02;99283.94;7312820;19;129182;-34
2023/06/23 10:52:14;;;;;;;23.75;2.28;;;;;;;25.51;61.29;99292.84;7315643;19;129441;-41
2023/06/23 10:54:39;;;;;;;14.82;1.83;;;;;;;25.50;61.12;99296.47;7315169;19;130507;-39
2023/06/23 10:57:12;;;;;;;39.43;3.10;;;;;;;25.54;61.37;99303.03;7315748;19;130967;-35
2023/06/23 10:59:42;;;;;;;30.25;2.72;;;;;;;25.54;61.25;99308.28;7314962;19;129362;-36
2023/06/23 11:02:15;;;;;;;20.67;2.08;;;;;;;25.44;60.73;99289.25;7316641;19;128608;-40
2023/06/23 11:05:03;;;;;;;24.85;2.28;;;;;;;25.55;60.86;99302.84;7312807;19;129577;-41
2023/06/23 11:07:28;;;;;;;;;;;;;;;25.62;61.00;99305.59;7316063;19;129985;-39
2023/06/23 11:10:01;;;;;;;57.00;4.53;;;;;;;25.53;60.20;99307.50;7313166;19;129474;-35
2023/06/23 11:12:36;;;;;;;44.00;3.05;;;;;;;25.52;60.84;99320.78;7315980;19;129345;-39
2023/06/23 11:15:20;;;;;;;31.92;2.75;;;;;;;25.52;60.92;99331.31;7315358;19;129475;-36
2023/06/23 11:17:50;;;;;;;24.15;2.10;;;;;;;25.51;61.24;99324.44;7314967;19;130170;-36
2023/06/23 11:20:22;;;;;;;19.05;2.15;;;;;;;25.51;60.48;99324.44;7312555;19;129016;-34
2023/06/23 11:23:04;;;;;;;36.65;3.30;;;;;;;25.54;60.80;99324.09;7315250;19;129865;-35
2023/06/23 11:25:30;;;;;;;25.55;2.35;;;;;;;25.42;60.97;99309.69;7315170;19;130515;-38